createdAt,value
2022-10-17T00:00:18.609Z,15.63
2022-10-17T00:01:19.770Z,15.66
2022-10-17T00:02:20.100Z,15.7
2022-10-17T00:03:20.284Z,15.69
2022-10-17T00:04:20.326Z,15.63
2022-10-17T00:05:21.950Z,15.67
2022-10-17T00:06:22.562Z,15.57
2022-10-17T00:07:23.456Z,15.54
2022-10-17T00:08:24.687Z,15.54
2022-10-17T00:09:24.575Z,15.55
2022-10-17T00:10:25.467Z,15.57
2022-10-17T00:11:26.360Z,15.43
2022-10-17T00:12:27.094Z,15.52
2022-10-17T00:13:27.879Z,15.47
2022-10-17T00:14:27.858Z,15.39
2022-10-17T00:15:28.794Z,15.52
2022-10-17T00:16:29.017Z,15.48
2022-10-17T00:17:30.892Z,15.41
2022-10-17T00:18:30.724Z,15.43
2022-10-17T00:19:31.644Z,15.44
2022-10-17T00:20:32.284Z,15.51
2022-10-17T00:21:32.196Z,15.43
2022-10-17T00:22:33.254Z,15.47
2022-10-17T00:23:33.519Z,15.51
2022-10-17T00:24:33.708Z,15.43
2022-10-17T00:25:33.627Z,15.44
2022-10-17T00:26:33.820Z,15.45
2022-10-17T00:27:34.566Z,15.45
2022-10-17T00:28:35.066Z,15.44
2022-10-17T00:29:34.909Z,15.48
2022-10-17T00:30:35.835Z,15.39
2022-10-17T00:31:36.040Z,15.47
2022-10-17T00:32:36.502Z,15.45
2022-10-17T00:33:36.699Z,15.44
2022-10-17T00:34:37.355Z,15.43
2022-10-17T00:35:37.729Z,15.45
2022-10-17T00:36:38.607Z,15.41
2022-10-17T00:37:39.238Z,15.41
2022-10-17T00:38:39.760Z,15.32
2022-10-17T00:39:40.252Z,15.33
2022-10-17T00:40:40.467Z,15.43
2022-10-17T00:41:41.783Z,15.36
2022-10-17T00:42:41.944Z,15.43
2022-10-17T00:43:43.155Z,15.39
2022-10-17T00:44:43.794Z,15.44
2022-10-17T00:45:44.387Z,15.39
2022-10-17T00:46:44.892Z,15.45
2022-10-17T00:47:45.099Z,15.47
2022-10-17T00:48:45.435Z,15.43
2022-10-17T00:49:47.051Z,15.37
2022-10-17T00:50:46.842Z,15.45
2022-10-17T00:51:47.750Z,15.45
2022-10-17T00:52:47.910Z,15.3
2022-10-17T00:53:48.430Z,15.45
2022-10-17T00:54:48.053Z,15.45
2022-10-17T00:55:48.965Z,15.44
2022-10-17T00:56:50.158Z,15.45
2022-10-17T00:57:51.096Z,15.44
2022-10-17T00:58:52.012Z,15.39
2022-10-17T00:59:52.859Z,15.39
2022-10-17T01:00:53.499Z,15.35
2022-10-17T01:01:54.823Z,15.35
2022-10-17T01:02:55.229Z,15.29
2022-10-17T01:03:56.427Z,15.29
2022-10-17T01:04:56.390Z,15.26
2022-10-17T01:05:57.618Z,15.29
2022-10-17T01:06:57.522Z,15.29
2022-10-17T01:07:57.738Z,15.27
2022-10-17T01:08:58.258Z,15.32
2022-10-17T01:09:58.475Z,15.32
2022-10-17T01:10:58.212Z,15.3
2022-10-17T01:11:59.428Z,15.32
2022-10-17T01:13:00.427Z,15.3
2022-10-17T01:14:00.334Z,15.32
2022-10-17T01:15:01.535Z,15.25
2022-10-17T01:16:02.149Z,15.29
2022-10-17T01:17:03.369Z,15.26
2022-10-17T01:18:03.593Z,15.29
2022-10-17T01:19:03.511Z,15.23
2022-10-17T01:20:04.496Z,15.19
2022-10-17T01:21:04.430Z,15.25
2022-10-17T01:22:05.333Z,15.12
2022-10-17T01:23:06.021Z,15.17
2022-10-17T01:24:06.239Z,15.18
2022-10-17T01:25:07.150Z,15.17
2022-10-17T01:26:08.340Z,15.14
2022-10-17T01:27:09.250Z,15.14
2022-10-17T01:28:09.888Z,15.14
2022-10-17T01:29:10.416Z,15.12
2022-10-17T01:30:10.330Z,15.19
2022-10-17T01:31:10.941Z,15.14
2022-10-17T01:32:11.867Z,15.25
2022-10-17T01:33:12.574Z,15.14
2022-10-17T01:34:13.463Z,15.12
2022-10-17T01:35:13.679Z,15.12
2022-10-17T01:36:14.315Z,15.11
2022-10-17T01:37:14.220Z,15.19
2022-10-17T01:38:14.859Z,15.12
2022-10-17T01:39:15.386Z,15.17
2022-10-17T01:40:15.658Z,15.1
2022-10-17T01:41:16.272Z,15.17
2022-10-17T01:42:16.887Z,15.18
2022-10-17T01:43:17.469Z,15.14
2022-10-17T01:44:17.385Z,15.17
2022-10-17T01:45:18.331Z,15.12
2022-10-17T01:46:19.251Z,15.19
2022-10-17T01:47:19.467Z,15.15
2022-10-17T01:48:19.774Z,15.12
2022-10-17T01:49:20.415Z,15.19
2022-10-17T01:50:21.329Z,15.25
2022-10-17T01:51:21.997Z,15.11
2022-10-17T01:52:22.885Z,15.15
2022-10-17T01:53:23.638Z,15.14
2022-10-17T01:54:24.289Z,15.14
2022-10-17T01:55:24.926Z,15.14
2022-10-17T01:56:25.846Z,15.1
2022-10-17T01:57:27.460Z,15.12
2022-10-17T01:58:27.294Z,15.15
2022-10-17T01:59:26.931Z,15.14
2022-10-17T02:00:28.418Z,15.05
2022-10-17T02:01:28.271Z,15.05
2022-10-17T02:02:28.578Z,15.11
2022-10-17T02:03:29.976Z,15.05
2022-10-17T02:04:29.587Z,15.05
2022-10-17T02:05:30.773Z,15.05
2022-10-17T02:06:31.418Z,15.08
2022-10-17T02:07:32.699Z,15.02
2022-10-17T02:08:32.909Z,15.04
2022-10-17T02:09:33.132Z,15
2022-10-17T02:10:33.470Z,15.05
2022-10-17T02:11:34.660Z,15.1
2022-10-17T02:12:34.977Z,15.05
2022-10-17T02:13:35.835Z,15.04
2022-10-17T02:14:36.176Z,15.05
2022-10-17T02:15:36.787Z,15.05
2022-10-17T02:16:36.699Z,15.04
2022-10-17T02:17:37.926Z,14.99
2022-10-17T02:18:37.842Z,15.02
2022-10-17T02:19:38.737Z,15.05
2022-10-17T02:20:39.948Z,15.15
2022-10-17T02:21:40.166Z,15.02
2022-10-17T02:22:40.346Z,15.11
2022-10-17T02:23:40.761Z,15.07
2022-10-17T02:24:40.982Z,15.05
2022-10-17T02:25:42.180Z,15.05
2022-10-17T02:26:42.770Z,15.05
2022-10-17T02:27:43.260Z,15.1
2022-10-17T02:28:43.678Z,15.07
2022-10-17T02:29:43.729Z,15.07
2022-10-17T02:30:44.071Z,15.07
2022-10-17T02:31:44.983Z,15.1
2022-10-17T02:32:50.319Z,15.05
2022-10-17T02:33:46.634Z,15.1
2022-10-17T02:34:46.674Z,14.99
2022-10-17T02:35:47.882Z,15.12
2022-10-17T02:36:48.537Z,15.1
2022-10-17T02:37:49.422Z,15.04
2022-10-17T02:38:50.632Z,15.05
2022-10-17T02:39:50.575Z,15.11
2022-10-17T02:40:51.488Z,15.11
2022-10-17T02:41:51.702Z,15.1
2022-10-17T02:42:52.193Z,15.07
2022-10-17T02:43:53.184Z,15.1
2022-10-17T02:44:53.782Z,14.93
2022-10-17T02:45:54.700Z,14.97
2022-10-17T02:46:55.198Z,15.02
2022-10-17T02:47:55.699Z,14.99
2022-10-17T02:48:56.216Z,14.97
2022-10-17T02:49:56.707Z,14.94
2022-10-17T02:50:56.621Z,14.94
2022-10-17T02:51:56.980Z,14.92
2022-10-17T02:52:57.879Z,14.97
2022-10-17T02:53:57.879Z,14.85
2022-10-17T02:54:58.109Z,14.97
2022-10-17T02:55:59.007Z,14.96
2022-10-17T02:57:00.198Z,14.82
2022-10-17T02:58:01.091Z,14.85
2022-10-17T02:59:00.984Z,14.94
2022-10-17T03:00:01.632Z,14.79
2022-10-17T03:01:02.683Z,14.77
2022-10-17T03:02:02.913Z,14.81
2022-10-17T03:03:03.861Z,14.79
2022-10-17T03:04:04.960Z,14.96
2022-10-17T03:05:04.902Z,14.87
2022-10-17T03:06:05.535Z,14.86
2022-10-17T03:07:06.181Z,14.9
2022-10-17T03:08:07.088Z,14.73
2022-10-17T03:09:08.300Z,14.87
2022-10-17T03:10:08.246Z,14.87
2022-10-17T03:11:09.135Z,14.78
2022-10-17T03:12:10.048Z,14.81
2022-10-17T03:13:10.663Z,14.85
2022-10-17T03:14:11.954Z,14.82
2022-10-17T03:15:11.851Z,14.81
2022-10-17T03:16:12.475Z,14.89
2022-10-17T03:17:13.113Z,14.82
2022-10-17T03:18:14.326Z,14.77
2022-10-17T03:19:14.962Z,14.71
2022-10-17T03:20:14.871Z,14.81
2022-10-17T03:21:15.788Z,14.79
2022-10-17T03:22:17.008Z,14.79
2022-10-17T03:23:17.398Z,14.86
2022-10-17T03:24:17.817Z,14.68
2022-10-17T03:25:18.335Z,14.74
2022-10-17T03:26:18.683Z,14.89
2022-10-17T03:27:19.609Z,14.82
2022-10-17T03:28:19.270Z,14.81
2022-10-17T03:29:19.983Z,14.81
2022-10-17T03:30:20.595Z,14.81
2022-10-17T03:31:20.910Z,14.79
2022-10-17T03:32:22.125Z,14.77
2022-10-17T03:33:23.327Z,14.82
2022-10-17T03:34:23.932Z,14.85
2022-10-17T03:35:23.869Z,14.74
2022-10-17T03:36:24.458Z,14.74
2022-10-17T03:37:25.116Z,14.78
2022-10-17T03:38:26.302Z,14.73
2022-10-17T03:39:27.215Z,14.81
2022-10-17T03:40:28.428Z,14.68
2022-10-17T03:41:28.337Z,14.68
2022-10-17T03:42:29.263Z,14.74
2022-10-17T03:43:29.745Z,14.79
2022-10-17T03:44:29.878Z,14.74
2022-10-17T03:45:30.782Z,14.78
2022-10-17T03:46:31.990Z,14.79
2022-10-17T03:47:32.714Z,14.79
2022-10-17T03:48:32.446Z,14.77
2022-10-17T03:49:32.657Z,14.85
2022-10-17T03:50:33.283Z,14.73
2022-10-17T03:51:33.802Z,14.82
2022-10-17T03:52:34.445Z,14.74
2022-10-17T03:53:35.073Z,14.82
2022-10-17T03:54:35.273Z,14.81
2022-10-17T03:55:36.480Z,14.78
2022-10-17T03:56:36.374Z,14.74
2022-10-17T03:57:36.945Z,14.79
2022-10-17T03:58:37.846Z,14.81
2022-10-17T03:59:38.464Z,14.86
2022-10-17T04:00:39.076Z,14.86
2022-10-17T04:01:39.678Z,14.77
2022-10-17T04:02:40.281Z,14.77
2022-10-17T04:03:40.206Z,14.86
2022-10-17T04:04:40.903Z,14.92
2022-10-17T04:05:41.519Z,14.87
2022-10-17T04:06:42.434Z,14.82
2022-10-17T04:07:43.084Z,14.94
2022-10-17T04:08:43.689Z,14.85
2022-10-17T04:09:44.334Z,14.79
2022-10-17T04:10:44.609Z,14.94
2022-10-17T04:11:45.539Z,14.93
2022-10-17T04:12:46.178Z,14.92
2022-10-17T04:13:46.387Z,14.94
2022-10-17T04:14:46.677Z,14.99
2022-10-17T04:15:47.578Z,14.99
2022-10-17T04:16:47.492Z,15.02
2022-10-17T04:17:48.963Z,15
2022-10-17T04:18:49.477Z,14.89
2022-10-17T04:19:50.431Z,14.89
2022-10-17T04:20:50.337Z,14.87
2022-10-17T04:21:51.552Z,14.92
2022-10-17T04:22:52.738Z,14.85
2022-10-17T04:23:52.365Z,14.85
2022-10-17T04:24:52.807Z,14.92
2022-10-17T04:25:53.017Z,14.77
2022-10-17T04:26:54.206Z,14.87
2022-10-17T04:27:54.124Z,14.81
2022-10-17T04:28:55.430Z,14.9
2022-10-17T04:29:56.343Z,14.89
2022-10-17T04:30:59.480Z,14.78
2022-10-17T04:31:57.701Z,14.77
2022-10-17T04:32:58.639Z,14.78
2022-10-17T04:33:59.857Z,14.85
2022-10-17T04:34:59.868Z,14.81
2022-10-17T04:36:01.065Z,14.79
2022-10-17T04:37:01.384Z,14.85
2022-10-17T04:38:02.038Z,14.74
2022-10-17T04:39:03.032Z,14.82
2022-10-17T04:40:03.738Z,14.77
2022-10-17T04:41:04.257Z,14.71
2022-10-17T04:42:04.598Z,14.79
2022-10-17T04:43:05.787Z,14.77
2022-10-17T04:44:05.830Z,14.78
2022-10-17T04:45:06.545Z,14.78
2022-10-17T04:46:07.352Z,14.7
2022-10-17T04:47:07.539Z,14.7
2022-10-17T04:48:07.733Z,14.7
2022-10-17T04:49:07.937Z,14.71
2022-10-17T04:50:08.490Z,14.7
2022-10-17T04:51:08.714Z,14.66
2022-10-17T04:52:09.415Z,14.63
2022-10-17T04:53:10.082Z,14.63
2022-10-17T04:54:11.003Z,14.56
2022-10-17T04:55:11.313Z,14.66
2022-10-17T04:56:12.258Z,14.58
2022-10-17T04:57:12.853Z,14.53
2022-10-17T04:58:12.883Z,14.52
2022-10-17T04:59:13.775Z,14.52
2022-10-17T05:00:15.713Z,14.52
2022-10-17T05:01:14.963Z,14.58
2022-10-17T05:02:15.469Z,14.43
2022-10-17T05:03:16.418Z,14.49
2022-10-17T05:04:22.465Z,14.53
2022-10-17T05:05:17.837Z,14.58
2022-10-17T05:06:17.728Z,14.41
2022-10-17T05:07:18.916Z,14.53
2022-10-17T05:08:18.858Z,14.45
2022-10-17T05:09:19.377Z,14.45
2022-10-17T05:10:19.613Z,14.48
2022-10-17T05:11:19.860Z,14.45
2022-10-17T05:12:20.065Z,14.49
2022-10-17T05:13:20.751Z,14.43
2022-10-17T05:14:22.084Z,14.41
2022-10-17T05:15:22.503Z,14.48
2022-10-17T05:16:23.396Z,14.41
2022-10-17T05:17:24.315Z,14.38
2022-10-17T05:18:24.531Z,14.49
2022-10-17T05:19:25.459Z,14.4
2022-10-17T05:20:25.359Z,14.45
2022-10-17T05:21:26.775Z,14.41
2022-10-17T05:22:27.103Z,14.52
2022-10-17T05:23:27.292Z,14.44
2022-10-17T05:24:27.504Z,14.48
2022-10-17T05:25:28.634Z,14.48
2022-10-17T05:26:29.163Z,14.55
2022-10-17T05:27:29.481Z,14.48
2022-10-17T05:28:30.204Z,14.45
2022-10-17T05:29:30.933Z,14.48
2022-10-17T05:30:37.514Z,14.48
2022-10-17T05:31:31.242Z,14.51
2022-10-17T05:32:33.004Z,14.48
2022-10-17T05:33:32.622Z,14.4
2022-10-17T05:34:33.553Z,14.58
2022-10-17T05:35:34.284Z,14.51
2022-10-17T05:36:34.475Z,14.52
2022-10-17T05:37:35.091Z,14.53
2022-10-17T05:38:35.319Z,14.45
2022-10-17T05:39:36.199Z,14.53
2022-10-17T05:40:36.788Z,14.48
2022-10-17T05:41:37.313Z,14.51
2022-10-17T05:42:37.634Z,14.55
2022-10-17T05:43:37.840Z,14.55
2022-10-17T05:44:38.457Z,14.53
2022-10-17T05:45:39.592Z,14.53
2022-10-17T05:46:39.509Z,14.52
2022-10-17T05:47:40.125Z,14.44
2022-10-17T05:48:40.466Z,14.52
2022-10-17T05:49:58.138Z,14.52
2022-10-17T05:50:42.094Z,14.45
2022-10-17T05:51:42.167Z,14.48
2022-10-17T05:52:47.279Z,14.48
2022-10-17T05:53:43.573Z,14.45
2022-10-17T05:54:43.477Z,14.48
2022-10-17T05:55:43.912Z,14.56
2022-10-17T05:56:44.884Z,14.45
2022-10-17T05:57:46.204Z,14.52
2022-10-17T05:59:06.598Z,14.58
2022-10-17T05:59:48.095Z,14.55
2022-10-17T06:00:48.784Z,14.56
2022-10-17T06:01:50.016Z,14.56
2022-10-17T06:02:50.425Z,14.53
2022-10-17T06:03:50.746Z,14.58
2022-10-17T06:04:51.189Z,14.53
2022-10-17T06:05:52.034Z,14.58
2022-10-17T06:06:52.945Z,14.61
2022-10-17T06:08:01.043Z,14.62
2022-10-17T06:08:54.043Z,14.59
2022-10-17T06:09:54.972Z,14.7
2022-10-17T06:10:55.461Z,14.71
2022-10-17T06:11:55.611Z,14.7
2022-10-17T06:12:55.933Z,14.78
2022-10-17T06:13:56.913Z,14.74
2022-10-17T06:14:57.531Z,14.67
2022-10-17T06:15:58.559Z,14.66
2022-10-17T06:16:58.898Z,14.7
2022-10-17T06:18:00.112Z,14.73
2022-10-17T06:19:00.736Z,14.68
2022-10-17T06:20:01.672Z,14.68
2022-10-17T06:21:02.180Z,14.67
2022-10-17T06:22:02.684Z,14.71
2022-10-17T06:23:03.187Z,14.73
2022-10-17T06:24:03.843Z,14.68
2022-10-17T06:25:04.329Z,14.68
2022-10-17T06:26:05.334Z,14.68
2022-10-17T06:27:12.222Z,14.78
2022-10-17T06:28:06.807Z,14.79
2022-10-17T06:29:06.658Z,14.78
2022-10-17T06:30:06.738Z,14.81
2022-10-17T06:31:07.958Z,14.73
2022-10-17T06:32:14.082Z,14.78
2022-10-17T06:33:08.647Z,14.81
2022-10-17T06:34:09.286Z,14.74
2022-10-17T06:35:10.214Z,14.79
2022-10-17T06:36:11.349Z,14.74
2022-10-17T06:37:11.675Z,14.93
2022-10-17T06:38:12.286Z,14.89
2022-10-17T06:39:13.506Z,14.96
2022-10-17T06:40:13.399Z,14.86
2022-10-17T06:41:14.399Z,14.9
2022-10-17T06:42:14.650Z,14.92
2022-10-17T06:43:15.707Z,15
2022-10-17T06:44:16.433Z,14.96
2022-10-17T06:45:17.704Z,15
2022-10-17T06:46:18.241Z,14.97
2022-10-17T06:47:22.571Z,15.05
2022-10-17T06:48:19.961Z,15.1
2022-10-17T06:49:21.158Z,15.05
2022-10-17T06:50:21.674Z,15.07
2022-10-17T06:51:21.908Z,15.07
2022-10-17T06:52:21.548Z,14.99
2022-10-17T06:53:22.738Z,15.07
2022-10-17T06:54:22.705Z,15.07
2022-10-17T06:55:28.696Z,15.05
2022-10-17T06:56:24.003Z,15.15
2022-10-17T06:57:24.360Z,15.11
2022-10-17T06:58:25.207Z,15.18
2022-10-17T06:59:25.266Z,15.32
2022-10-17T07:00:26.007Z,15.39
2022-10-17T07:01:26.425Z,15.47
2022-10-17T07:02:27.772Z,15.62
2022-10-17T07:03:27.064Z,15.87
2022-10-17T07:04:26.993Z,16.05
2022-10-17T07:05:27.932Z,16.51
2022-10-17T07:06:28.263Z,16.73
2022-10-17T07:07:29.620Z,16.95
2022-10-17T07:08:29.595Z,17.22
2022-10-17T07:09:30.821Z,17.42
2022-10-17T07:10:31.012Z,17.78
2022-10-17T07:11:31.506Z,17.95
2022-10-17T07:12:32.069Z,18.02
2022-10-17T07:13:39.237Z,17.98
2022-10-17T07:14:32.884Z,17.98
2022-10-17T07:15:32.802Z,17.98
2022-10-17T07:16:34.184Z,17.86
2022-10-17T07:17:35.193Z,17.78
2022-10-17T07:18:35.094Z,17.69
2022-10-17T07:19:35.598Z,17.78
2022-10-17T07:20:36.533Z,17.76
2022-10-17T07:21:42.644Z,17.75
2022-10-17T07:22:37.609Z,17.79
2022-10-17T07:23:37.522Z,17.88
2022-10-17T07:24:38.593Z,17.9
2022-10-17T07:25:42.133Z,18.05
2022-10-17T07:26:39.468Z,17.97
2022-10-17T07:27:39.729Z,18.02
2022-10-17T07:28:39.941Z,18.26
2022-10-17T07:29:40.057Z,18.19
2022-10-17T07:30:40.600Z,18.3
2022-10-17T07:31:41.509Z,18.33
2022-10-17T07:32:42.460Z,18.36
2022-10-17T07:33:42.857Z,18.48
2022-10-17T07:34:43.107Z,18.45
2022-10-17T07:35:43.070Z,18.51
2022-10-17T07:36:43.940Z,18.61
2022-10-17T07:37:44.336Z,18.66
2022-10-17T07:38:45.554Z,18.76
2022-10-17T07:39:45.418Z,18.91
2022-10-17T07:40:46.248Z,19.01
2022-10-17T07:41:48.877Z,19.11
2022-10-17T07:42:47.194Z,19.3
2022-10-17T07:43:47.469Z,19.39
2022-10-17T07:44:47.704Z,19.47
2022-10-17T07:45:48.387Z,19.63
2022-10-17T07:46:48.810Z,19.79
2022-10-17T07:47:49.440Z,19.78
2022-10-17T07:48:50.855Z,19.87
2022-10-17T07:49:51.689Z,19.84
2022-10-17T07:50:52.647Z,20.03
2022-10-17T07:51:52.780Z,19.99
2022-10-17T07:52:54.097Z,19.96
2022-10-17T07:53:55.672Z,19.94
2022-10-17T07:54:54.648Z,20.08
2022-10-17T07:55:56.076Z,20.14
2022-10-17T07:56:56.167Z,20.15
2022-10-17T07:57:55.773Z,20.26
2022-10-17T07:59:56.641Z,20.39
2022-10-17T08:00:57.525Z,20.49
2022-10-17T08:01:58.003Z,20.58
2022-10-17T08:02:57.962Z,20.6
2022-10-17T08:03:58.189Z,20.58
2022-10-17T08:04:58.206Z,20.6
2022-10-17T08:05:59.432Z,20.75
2022-10-17T08:07:29.246Z,21.07
2022-10-17T08:08:00.967Z,21.15
2022-10-17T08:09:01.184Z,21.17
2022-10-17T08:10:02.156Z,21.48
2022-10-17T08:11:03.048Z,21.63
2022-10-17T08:12:03.709Z,21.74
2022-10-17T08:13:03.950Z,21.63
2022-10-17T08:14:04.901Z,21.53
2022-10-17T08:15:05.558Z,21.41
2022-10-17T08:16:06.233Z,21.25
2022-10-17T08:17:06.854Z,21.15
2022-10-17T08:18:06.774Z,21.17
2022-10-17T08:20:08.696Z,21.03
2022-10-17T08:21:09.625Z,21.14
2022-10-17T08:22:09.548Z,21.43
2022-10-17T08:23:10.201Z,21.78
2022-10-17T08:24:10.410Z,22.06
2022-10-17T08:25:10.672Z,22.21
2022-10-17T08:26:11.442Z,22.08
2022-10-17T08:27:11.727Z,22.1
2022-10-17T08:28:12.060Z,22.25
2022-10-17T08:29:12.346Z,22.73
2022-10-17T08:30:12.656Z,23.21
2022-10-17T08:31:13.647Z,23.79
2022-10-17T08:32:15.645Z,24.55
2022-10-17T08:33:15.106Z,25.15
2022-10-17T08:34:15.361Z,25.83
2022-10-17T08:35:15.375Z,26.45
2022-10-17T08:36:16.618Z,26.71
2022-10-17T08:37:17.466Z,26.55
2022-10-17T08:38:23.282Z,26.46
2022-10-17T08:39:19.044Z,26.42
2022-10-17T08:40:20.349Z,26.29
2022-10-17T08:41:21.186Z,26.11
2022-10-17T08:42:22.191Z,25.89
2022-10-17T08:43:22.426Z,25.56
2022-10-17T08:44:23.352Z,25.15
2022-10-17T08:45:23.638Z,24.78
2022-10-17T08:46:24.633Z,24.55
2022-10-17T08:47:24.918Z,24.59
2022-10-17T08:48:25.994Z,24.55
2022-10-17T08:49:26.749Z,24.48
2022-10-17T08:50:27.469Z,24.36
2022-10-17T08:51:27.514Z,24.29
2022-10-17T08:52:27.965Z,24.07
2022-10-17T08:53:28.437Z,23.85
2022-10-17T08:54:28.479Z,23.73
2022-10-17T08:55:29.566Z,23.48
2022-10-17T08:56:50.374Z,23.36
2022-10-17T08:57:37.964Z,23.26
2022-10-17T08:58:37.689Z,23.26
2022-10-17T08:59:38.522Z,23.14
2022-10-17T09:00:39.045Z,23.29
2022-10-17T09:01:38.967Z,23.54
2022-10-17T09:02:40.115Z,23.81
2022-10-17T09:03:41.288Z,24.03
2022-10-17T09:04:41.815Z,24.21
2022-10-17T09:05:42.432Z,24.19
2022-10-17T09:06:42.951Z,24.14
2022-10-17T09:07:43.740Z,24.16
2022-10-17T09:08:44.488Z,24.34
2022-10-17T09:09:44.260Z,24.32
2022-10-17T09:10:45.809Z,24.29
2022-10-17T09:11:46.306Z,24.21
2022-10-17T09:12:46.542Z,24.24
2022-10-17T09:13:46.794Z,24.03
2022-10-17T09:14:47.200Z,23.95
2022-10-17T09:15:48.144Z,23.85
2022-10-17T09:16:48.455Z,23.88
2022-10-17T09:17:49.103Z,23.84
2022-10-17T09:18:49.798Z,23.81
2022-10-17T09:19:50.879Z,23.66
2022-10-17T09:20:51.447Z,23.58
2022-10-17T09:21:52.276Z,23.48
2022-10-17T09:22:53.470Z,23.4
2022-10-17T09:24:09.252Z,23.29
2022-10-17T09:24:54.381Z,23.21
2022-10-17T09:25:54.340Z,23.16
2022-10-17T09:26:55.022Z,23.1
2022-10-17T09:27:55.502Z,23.06
2022-10-17T09:28:56.626Z,23.07
2022-10-17T09:29:57.184Z,22.99
2022-10-17T09:30:58.515Z,22.92
2022-10-17T09:31:58.947Z,22.91
2022-10-17T09:32:59.456Z,22.88
2022-10-17T09:34:01.200Z,22.83
2022-10-17T09:35:00.239Z,22.77
2022-10-17T09:36:01.285Z,22.8
2022-10-17T09:37:02.571Z,22.83
2022-10-17T09:38:03.554Z,22.76
2022-10-17T09:39:04.138Z,22.67
2022-10-17T09:40:05.171Z,22.58
2022-10-17T09:41:44.039Z,22.56
2022-10-17T09:42:06.456Z,22.65
2022-10-17T09:43:07.191Z,22.62
2022-10-17T09:44:07.857Z,22.61
2022-10-17T09:45:08.701Z,22.63
2022-10-17T09:46:09.225Z,22.68
2022-10-17T09:47:08.935Z,22.76
2022-10-17T09:48:09.493Z,22.78
2022-10-17T09:49:13.546Z,22.81
2022-10-17T09:50:10.691Z,22.81
2022-10-17T09:51:31.188Z,22.8
2022-10-17T09:52:11.870Z,22.84
2022-10-17T09:53:12.820Z,22.83
2022-10-17T09:54:14.108Z,22.89
2022-10-17T09:55:14.872Z,22.91
2022-10-17T09:56:15.882Z,22.96
2022-10-17T09:57:16.592Z,22.98
2022-10-17T09:58:17.286Z,23.16
2022-10-17T09:59:19.979Z,23.42
2022-10-17T10:00:18.392Z,23.55
2022-10-17T10:01:24.102Z,23.92
2022-10-17T10:02:19.240Z,24.19
2022-10-17T10:03:19.697Z,24.44
2022-10-17T10:04:20.579Z,24.59
2022-10-17T10:05:21.181Z,24.68
2022-10-17T10:06:22.440Z,24.84
2022-10-17T10:07:29.410Z,25.09
2022-10-17T10:08:22.874Z,25.36
2022-10-17T10:09:23.413Z,25.91
2022-10-17T10:10:24.184Z,26.26
2022-10-17T10:11:24.694Z,26.73
2022-10-17T10:12:24.938Z,27.1
2022-10-17T10:13:25.392Z,27.26
2022-10-17T10:14:26.981Z,27.44
2022-10-17T10:15:27.190Z,27.44
2022-10-17T10:16:28.140Z,27.61
2022-10-17T10:17:28.123Z,27.83
2022-10-17T10:19:29.757Z,28.23
2022-10-17T10:20:30.933Z,28.56
2022-10-17T10:21:30.866Z,28.77
2022-10-17T10:22:32.443Z,28.93
2022-10-17T10:23:32.107Z,29.18
2022-10-17T10:24:36.871Z,29.44
2022-10-17T10:25:33.104Z,29.73
2022-10-17T10:26:33.045Z,29.83
2022-10-17T10:27:34.585Z,29.98
2022-10-17T10:28:34.919Z,30.1
2022-10-17T10:29:35.094Z,30.08
2022-10-17T10:30:40.275Z,30.05
2022-10-17T10:31:36.337Z,30.11
2022-10-17T10:32:37.729Z,29.99
2022-10-17T10:33:41.994Z,29.9
2022-10-17T10:34:38.057Z,29.79
2022-10-17T10:35:39.093Z,29.64
2022-10-17T10:36:39.949Z,29.61
2022-10-17T10:37:40.216Z,29.59
2022-10-17T10:38:40.997Z,29.57
2022-10-17T10:39:41.656Z,29.46
2022-10-17T10:40:42.127Z,29.44
2022-10-17T10:41:42.639Z,29.58
2022-10-17T10:42:42.881Z,29.61
2022-10-17T10:43:43.432Z,29.46
2022-10-17T10:44:43.997Z,29.52
2022-10-17T10:45:59.313Z,29.47
2022-10-17T10:46:44.806Z,29.42
2022-10-17T10:47:44.461Z,29.4
2022-10-17T10:48:44.915Z,29.52
2022-10-17T10:49:45.578Z,29.4
2022-10-17T10:50:51.243Z,29.35
2022-10-17T10:51:47.237Z,29.32
2022-10-17T10:52:48.049Z,29.22
2022-10-17T10:53:47.677Z,29.18
2022-10-17T10:54:48.907Z,29.2
2022-10-17T10:55:48.895Z,29.12
2022-10-17T10:56:53.461Z,29.05
2022-10-17T10:57:50.681Z,29
2022-10-17T10:58:51.093Z,28.94
2022-10-17T10:59:51.381Z,28.9
2022-10-17T11:00:51.871Z,28.8
2022-10-17T11:01:52.286Z,28.77
2022-10-17T11:02:53.260Z,28.8
2022-10-17T11:03:53.255Z,28.68
2022-10-17T11:04:53.463Z,28.7
2022-10-17T11:05:53.982Z,28.6
2022-10-17T11:06:54.242Z,28.57
2022-10-17T11:07:54.459Z,28.6
2022-10-17T11:08:55.244Z,28.64
2022-10-17T11:09:55.758Z,28.67
2022-10-17T11:10:55.954Z,28.65
2022-10-17T11:11:56.622Z,28.7
2022-10-17T11:12:56.601Z,28.72
2022-10-17T11:13:59.794Z,28.64
2022-10-17T11:14:56.717Z,28.65
2022-10-17T11:15:58.041Z,28.57
2022-10-17T11:16:57.957Z,28.57
2022-10-17T11:17:58.894Z,28.38
2022-10-17T11:18:59.196Z,28.31
2022-10-17T11:20:00.130Z,28.28
2022-10-17T11:21:00.744Z,28.27
2022-10-17T11:22:00.673Z,28.23
2022-10-17T11:23:01.687Z,28.22
2022-10-17T11:24:09.022Z,28.09
2022-10-17T11:25:03.341Z,28.18
2022-10-17T11:26:04.561Z,28.04
2022-10-17T11:27:04.494Z,28.13
2022-10-17T11:28:10.423Z,28.13
2022-10-17T11:29:05.291Z,28.16
2022-10-17T11:30:06.689Z,28.04
2022-10-17T11:31:09.971Z,28
2022-10-17T11:32:06.935Z,27.95
2022-10-17T11:33:07.290Z,27.76
2022-10-17T11:34:07.928Z,27.61
2022-10-17T11:35:08.559Z,27.37
2022-10-17T11:36:08.502Z,27.29
2022-10-17T11:37:08.948Z,27.26
2022-10-17T11:38:10.566Z,27.34
2022-10-17T11:39:11.019Z,27.44
2022-10-17T11:40:11.246Z,27.63
2022-10-17T11:41:12.274Z,27.61
2022-10-17T11:42:12.486Z,27.67
2022-10-17T11:43:13.450Z,27.68
2022-10-17T11:44:13.691Z,27.68
2022-10-17T11:45:14.214Z,27.79
2022-10-17T11:46:13.859Z,27.73
2022-10-17T11:47:15.379Z,27.76
2022-10-17T11:48:15.588Z,27.72
2022-10-17T11:49:20.955Z,27.75
2022-10-17T11:52:15.846Z,27.76
2022-10-17T11:53:13.817Z,27.86
2022-10-17T11:54:13.785Z,27.95
2022-10-17T11:55:14.385Z,28.18
2022-10-17T11:56:14.629Z,28.23
2022-10-17T11:57:19.919Z,28.2
2022-10-17T11:58:15.254Z,28.34
2022-10-17T11:59:16.120Z,28.31
2022-10-17T12:00:16.854Z,28.43
2022-10-17T12:01:18.084Z,28.37
2022-10-17T12:02:18.590Z,28.37
2022-10-17T12:03:19.461Z,28.38
2022-10-17T12:04:20.647Z,28.23
2022-10-17T12:05:20.438Z,28.18
2022-10-17T12:06:20.662Z,28.1
2022-10-17T12:07:21.391Z,27.95
2022-10-17T12:08:21.727Z,27.81
2022-10-17T12:09:22.263Z,27.75
2022-10-17T12:10:22.992Z,27.83
2022-10-17T12:11:23.213Z,27.63
2022-10-17T12:12:23.736Z,27.53
2022-10-17T12:13:24.534Z,27.44
2022-10-17T12:14:25.471Z,27.45
2022-10-17T12:15:25.936Z,27.35
2022-10-17T12:16:26.187Z,27.41
2022-10-17T12:17:27.032Z,27.35
2022-10-17T12:18:27.164Z,27.34
2022-10-17T12:19:28.069Z,27.37
2022-10-17T12:20:29.373Z,27.45
2022-10-17T12:21:35.628Z,27.52
2022-10-17T12:22:31.913Z,27.6
2022-10-17T12:23:32.092Z,27.71
2022-10-17T12:24:31.238Z,27.75
2022-10-17T12:25:32.568Z,27.78
2022-10-17T12:26:32.899Z,27.76
2022-10-17T12:27:33.635Z,27.76
2022-10-17T12:28:34.562Z,27.82
2022-10-17T12:29:34.921Z,27.79
2022-10-17T12:30:35.946Z,27.76
2022-10-17T12:31:40.623Z,27.79
2022-10-17T12:33:08.425Z,27.79
2022-10-17T12:33:38.098Z,27.81
2022-10-17T12:34:39.573Z,27.78
2022-10-17T12:35:40.917Z,27.6
2022-10-17T12:36:42.137Z,27.66
2022-10-17T12:37:42.345Z,27.61
2022-10-17T12:38:49.254Z,27.44
2022-10-17T12:39:43.394Z,27.5
2022-10-17T12:40:49.247Z,27.72
2022-10-17T12:41:44.255Z,27.75
2022-10-17T12:42:44.915Z,27.85
2022-10-17T12:44:51.109Z,27.71
2022-10-17T12:45:46.518Z,27.81
2022-10-17T12:46:47.990Z,27.78
2022-10-17T12:47:48.904Z,27.83
2022-10-17T12:48:49.483Z,27.86
2022-10-17T12:49:56.552Z,27.9
2022-10-17T12:50:50.322Z,27.9
2022-10-17T12:51:49.877Z,27.88
2022-10-17T12:53:51.881Z,27.79
2022-10-17T12:55:14.618Z,27.75
2022-10-17T12:55:53.778Z,27.82
2022-10-17T12:56:54.719Z,27.67
2022-10-17T12:57:55.354Z,27.67
2022-10-17T12:58:55.885Z,27.58
2022-10-17T12:59:59.095Z,27.64
2022-10-17T13:01:28.369Z,27.57
2022-10-17T13:02:01.539Z,27.58
2022-10-17T13:03:02.152Z,27.47
2022-10-17T13:04:03.245Z,27.57
2022-10-17T13:05:03.494Z,27.68
2022-10-17T13:06:03.168Z,27.63
2022-10-17T13:07:04.750Z,27.6
2022-10-17T13:08:06.002Z,27.76
2022-10-17T13:09:09.225Z,27.73
2022-10-17T13:10:06.312Z,27.79